createdAt,value
2019-02-04T00:00:37.785Z,0.50
2019-02-04T00:03:09.528Z,0.50
2019-02-04T00:05:40.200Z,0.50
2019-02-04T00:08:10.839Z,0.50
2019-02-04T00:10:41.493Z,0.50
2019-02-04T00:13:12.290Z,0.50
2019-02-04T00:15:43.003Z,0.40
2019-02-04T00:18:14.102Z,0.40
2019-02-04T00:20:44.761Z,0.40
2019-02-04T00:23:15.579Z,0.50
2019-02-04T00:25:47.200Z,0.50
2019-02-04T00:28:17.878Z,0.40
2019-02-04T00:30:48.556Z,0.30
2019-02-04T00:33:20.229Z,0.30
2019-02-04T00:35:50.965Z,0.30
2019-02-04T00:38:21.620Z,0.40
2019-02-04T00:40:53.274Z,0.40
2019-02-04T00:43:24.191Z,0.40
2019-02-04T00:45:54.934Z,0.30
2019-02-04T00:48:25.947Z,0.30
2019-02-04T00:50:57.179Z,0.30
2019-02-04T00:53:28.102Z,0.30
2019-02-04T00:55:58.947Z,0.20
2019-02-04T00:58:29.703Z,0.20
2019-02-04T01:01:00.371Z,0.30
2019-02-04T01:03:31.423Z,0.30
2019-02-04T01:06:02.064Z,0.30
2019-02-04T01:08:33.242Z,0.30
2019-02-04T01:11:04.199Z,0.20
2019-02-04T01:13:35.157Z,0.30
2019-02-04T01:16:06.251Z,0.20
2019-02-04T01:18:36.935Z,0.20
2019-02-04T01:21:07.861Z,0.10
2019-02-04T01:23:38.855Z,0.10
2019-02-04T01:26:11.210Z,0.10
2019-02-04T01:28:42.025Z,0.20
2019-02-04T01:31:12.665Z,0.10
2019-02-04T01:33:43.258Z,0.20
2019-02-04T01:36:13.919Z,0.20
2019-02-04T01:38:44.716Z,0.20
2019-02-04T01:41:15.506Z,0.10
2019-02-04T01:43:46.143Z,0.10
2019-02-04T01:46:17.043Z,0.10
2019-02-04T01:48:47.782Z,0.10
2019-02-04T01:51:18.390Z,0.10
2019-02-04T01:53:49.491Z,0.00
2019-02-04T01:56:20.413Z,0.00
2019-02-04T01:58:51.183Z,-0.10
2019-02-04T02:01:21.958Z,-0.10
2019-02-04T02:03:52.606Z,-0.10
2019-02-04T02:06:23.796Z,-0.20
2019-02-04T02:08:54.400Z,-0.20
2019-02-04T02:11:25.128Z,-0.20
2019-02-04T02:13:56.075Z,-0.20
2019-02-04T02:16:26.814Z,-0.10
2019-02-04T02:18:58.846Z,-0.20
2019-02-04T02:21:29.615Z,-0.20
2019-02-04T02:24:00.325Z,-0.30
2019-02-04T02:26:31.066Z,-0.20
2019-02-04T02:29:01.705Z,-0.10
2019-02-04T02:31:32.797Z,0.00
2019-02-04T02:34:03.821Z,0.00
2019-02-04T02:36:34.482Z,-0.10
2019-02-04T02:39:08.788Z,-0.10
2019-02-04T02:41:39.624Z,-0.10
2019-02-04T02:44:10.713Z,-0.10
2019-02-04T02:46:41.609Z,0.00
2019-02-04T02:49:12.876Z,0.20
2019-02-04T02:51:43.640Z,0.40
2019-02-04T02:54:14.518Z,0.50
2019-02-04T02:56:45.308Z,0.70
2019-02-04T02:59:15.954Z,0.80
2019-02-04T03:01:46.660Z,0.90
2019-02-04T03:04:17.435Z,1.00
2019-02-04T03:06:48.091Z,1.00
2019-02-04T03:09:18.890Z,1.00
2019-02-04T03:11:49.690Z,0.90
2019-02-04T03:14:20.388Z,0.80
2019-02-04T03:16:51.179Z,0.70
2019-02-04T03:19:21.758Z,0.50
2019-02-04T03:21:52.323Z,0.40
2019-02-04T03:24:22.961Z,0.30
2019-02-04T03:26:53.582Z,0.30
2019-02-04T03:29:24.558Z,0.30
2019-02-04T03:31:56.611Z,0.30
2019-02-04T03:34:27.362Z,0.30
2019-02-04T03:36:58.335Z,0.40
2019-02-04T03:39:28.981Z,0.40
2019-02-04T03:41:59.682Z,0.40
2019-02-04T03:44:30.291Z,0.50
2019-02-04T03:47:01.838Z,0.50
2019-02-04T03:49:32.950Z,0.50
2019-02-04T03:52:19.053Z,0.50
2019-02-04T03:54:49.671Z,0.50
2019-02-04T03:57:20.411Z,0.40
2019-02-04T03:59:51.098Z,0.40
2019-02-04T04:02:22.047Z,0.40
2019-02-04T04:04:52.982Z,0.40
2019-02-04T04:07:24.012Z,0.50
2019-02-04T04:09:54.773Z,0.60
2019-02-04T04:12:25.468Z,0.60
2019-02-04T04:14:56.306Z,0.60
2019-02-04T04:17:27.023Z,0.50
2019-02-04T04:19:58.246Z,0.30
2019-02-04T04:22:29.004Z,0.20
2019-02-04T04:24:59.982Z,0.10
2019-02-04T04:27:30.752Z,0.00
2019-02-04T04:30:01.413Z,-0.10
2019-02-04T04:32:32.398Z,-0.10
2019-02-04T04:35:03.077Z,-0.20
2019-02-04T04:37:34.289Z,-0.20
2019-02-04T04:40:05.753Z,-0.20
2019-02-04T04:42:36.690Z,-0.20
2019-02-04T04:45:07.842Z,-0.20
2019-02-04T04:47:37.629Z,-0.20
2019-02-04T04:50:07.991Z,-0.30
2019-02-04T04:52:37.521Z,-0.30
2019-02-04T04:55:07.832Z,-0.20
2019-02-04T04:57:37.492Z,-0.20
2019-02-04T05:00:08.063Z,-0.20
2019-02-04T05:02:37.981Z,-0.20
2019-02-04T05:05:08.120Z,-0.20
2019-02-04T05:07:37.709Z,-0.20
2019-02-04T05:10:07.929Z,-0.30
2019-02-04T05:12:37.555Z,-0.30
2019-02-04T05:15:08.035Z,-0.20
2019-02-04T05:17:38.150Z,-0.20
2019-02-04T05:20:08.248Z,-0.20
2019-02-04T05:22:37.921Z,-0.20
2019-02-04T05:25:07.574Z,-0.30
2019-02-04T05:27:37.549Z,-0.30
2019-02-04T05:30:08.951Z,-0.30
2019-02-04T05:32:38.556Z,-0.30
2019-02-04T05:35:08.242Z,-0.20
2019-02-04T05:37:37.789Z,-0.10
2019-02-04T05:40:08.219Z,0.00
2019-02-04T05:42:38.129Z,0.10
2019-02-04T05:45:08.714Z,0.20
2019-02-04T05:47:38.275Z,0.20
2019-02-04T05:50:09.233Z,0.20
2019-02-04T05:52:38.801Z,0.20
2019-02-04T05:55:11.679Z,0.20
2019-02-04T05:57:41.754Z,0.10
2019-02-04T06:00:13.007Z,0.00
2019-02-04T06:02:42.750Z,0.00
2019-02-04T06:05:12.768Z,0.00
2019-02-04T06:07:42.361Z,-0.10
2019-02-04T06:10:12.338Z,-0.10
2019-02-04T06:12:41.940Z,-0.10
2019-02-04T06:15:11.942Z,-0.10
2019-02-04T06:17:41.599Z,-0.10
2019-02-04T06:20:12.794Z,-0.10
2019-02-04T06:22:42.673Z,-0.10
2019-02-04T06:25:12.527Z,0.00
2019-02-04T06:27:42.136Z,0.00
2019-02-04T06:30:11.942Z,0.00
2019-02-04T06:32:41.551Z,0.00
2019-02-04T06:35:11.267Z,0.00
2019-02-04T06:37:40.808Z,0.00
2019-02-04T06:40:10.891Z,0.00
2019-02-04T06:42:40.674Z,0.00
2019-02-04T06:45:11.121Z,0.00
2019-02-04T06:47:40.953Z,0.00
2019-02-04T06:50:11.622Z,0.00
2019-02-04T06:52:41.478Z,0.00
2019-02-04T06:55:12.834Z,0.00
2019-02-04T06:57:42.359Z,0.10
2019-02-04T07:00:12.502Z,0.10
2019-02-04T07:02:42.162Z,0.10
2019-02-04T07:05:11.729Z,0.20
2019-02-04T07:07:41.278Z,0.20
2019-02-04T07:10:12.071Z,0.30
2019-02-04T07:12:41.586Z,0.30
2019-02-04T07:15:11.688Z,0.40
2019-02-04T07:17:42.532Z,0.60
2019-02-04T07:20:16.364Z,0.70
2019-02-04T07:22:47.373Z,0.90
2019-02-04T07:25:20.376Z,1.10
2019-02-04T07:27:51.664Z,1.20
2019-02-04T07:30:26.867Z,1.40
2019-02-04T07:32:57.834Z,1.60
2019-02-04T07:35:28.773Z,1.70
2019-02-04T07:37:59.620Z,1.90
2019-02-04T07:40:31.785Z,2.10
2019-02-04T07:43:02.611Z,2.30
2019-02-04T07:45:33.797Z,2.50
2019-02-04T07:48:04.518Z,3.20
2019-02-04T07:50:35.256Z,4.60
2019-02-04T07:53:05.305Z,6.10
2019-02-04T07:55:34.915Z,7.10
2019-02-04T07:58:04.569Z,7.50
2019-02-04T08:00:35.391Z,7.30
2019-02-04T08:03:06.107Z,7.10
2019-02-04T08:05:36.776Z,6.20
2019-02-04T08:08:07.545Z,5.40
2019-02-04T08:10:38.255Z,4.90
2019-02-04T08:13:08.958Z,4.60
2019-02-04T08:15:39.629Z,4.40
2019-02-04T08:18:10.403Z,4.30
2019-02-04T08:20:40.206Z,5.40
2019-02-04T08:23:10.593Z,8.60
2019-02-04T08:25:41.533Z,11.40
2019-02-04T08:28:12.225Z,13.60
2019-02-04T08:30:43.088Z,15.40
2019-02-04T08:33:14.582Z,16.70
2019-02-04T08:35:45.270Z,18.10
2019-02-04T08:38:15.919Z,18.80
2019-02-04T08:40:46.590Z,19.00
2019-02-04T08:43:17.277Z,19.80
2019-02-04T08:45:48.099Z,19.80
2019-02-04T08:48:18.791Z,19.90
2019-02-04T08:50:55.114Z,20.20
2019-02-04T08:53:26.210Z,20.60
2019-02-04T08:55:57.110Z,20.60
2019-02-04T08:58:27.953Z,21.10
2019-02-04T09:00:58.885Z,21.10
2019-02-04T09:03:29.675Z,20.90
2019-02-04T09:06:00.748Z,20.90
2019-02-04T09:08:31.726Z,20.80
2019-02-04T09:11:02.401Z,21.20
2019-02-04T09:13:33.048Z,21.80
2019-02-04T09:16:03.978Z,22.30
2019-02-04T09:18:44.451Z,22.30
2019-02-04T09:21:07.230Z,22.60
2019-02-04T09:23:37.880Z,23.30
2019-02-04T09:26:08.604Z,23.90
2019-02-04T09:28:38.279Z,24.30
2019-02-04T09:31:08.825Z,24.90
2019-02-04T09:33:39.612Z,24.60
2019-02-04T09:36:10.695Z,23.20
2019-02-04T09:38:41.508Z,22.10
2019-02-04T09:41:12.223Z,20.90
2019-02-04T09:43:43.199Z,21.30
2019-02-04T09:46:13.943Z,20.70
2019-02-04T09:48:44.674Z,19.30
2019-02-04T09:51:15.334Z,18.00
2019-02-04T09:53:46.064Z,17.20
2019-02-04T09:56:16.731Z,17.70
2019-02-04T09:58:47.315Z,17.30
2019-02-04T10:01:17.995Z,17.30
2019-02-04T10:03:48.826Z,18.10
2019-02-04T10:06:19.663Z,18.20
2019-02-04T10:08:50.660Z,18.30
2019-02-04T10:11:21.328Z,18.00
2019-02-04T10:13:53.141Z,17.60
2019-02-04T10:16:23.968Z,17.50
2019-02-04T10:18:54.771Z,17.30
2019-02-04T10:21:25.740Z,17.50
2019-02-04T10:23:56.395Z,16.80
2019-02-04T10:26:27.239Z,15.90
2019-02-04T10:28:58.035Z,16.10
2019-02-04T10:31:28.917Z,16.20
2019-02-04T10:33:59.632Z,16.30
2019-02-04T10:36:30.633Z,15.90
2019-02-04T10:39:01.935Z,15.60
2019-02-04T10:41:32.883Z,15.60
2019-02-04T10:44:04.184Z,15.60
2019-02-04T10:46:34.976Z,15.50
2019-02-04T10:49:06.223Z,14.80
2019-02-04T10:51:37.614Z,14.70
2019-02-04T10:54:08.575Z,14.60
2019-02-04T10:56:38.673Z,14.60
2019-02-04T10:59:08.446Z,13.50
2019-02-04T11:01:38.048Z,13.40
2019-02-04T11:04:07.600Z,13.70
2019-02-04T11:06:37.306Z,13.40
2019-02-04T11:09:09.940Z,13.10
2019-02-04T11:11:40.691Z,13.00
2019-02-04T11:14:11.950Z,12.90
2019-02-04T11:16:42.608Z,12.70
2019-02-04T11:19:13.693Z,12.50
2019-02-04T11:21:44.390Z,12.50
2019-02-04T11:24:15.365Z,12.10
2019-02-04T11:26:46.007Z,11.70
2019-02-04T11:29:18.754Z,11.10
2019-02-04T11:31:49.285Z,11.00
2019-02-04T11:34:20.059Z,10.70
2019-02-04T11:36:50.767Z,10.40
2019-02-04T11:39:21.819Z,10.20
2019-02-04T11:41:54.206Z,10.10
2019-02-04T11:44:25.229Z,10.00
2019-02-04T11:46:56.259Z,9.80
2019-02-04T11:49:27.033Z,9.60
2019-02-04T11:51:57.685Z,9.60
2019-02-04T11:54:28.279Z,9.50
2019-02-04T11:56:59.284Z,9.50
2019-02-04T11:59:29.945Z,9.20
2019-02-04T12:02:00.593Z,9.10
2019-02-04T12:04:31.263Z,9.00
2019-02-04T12:07:01.882Z,8.90
2019-02-04T12:09:32.465Z,8.80
2019-02-04T12:12:03.155Z,8.60
2019-02-04T12:14:33.726Z,8.50
2019-02-04T12:17:04.308Z,8.50
2019-02-04T12:19:35.066Z,8.50
2019-02-04T12:22:05.811Z,8.40
2019-02-04T12:24:36.526Z,8.20
2019-02-04T12:27:07.670Z,8.20
2019-02-04T12:29:38.450Z,8.20
2019-02-04T12:32:09.228Z,8.20
2019-02-04T12:34:39.825Z,8.20
2019-02-04T12:37:10.755Z,8.20
2019-02-04T12:39:41.689Z,8.20
2019-02-04T12:42:12.646Z,8.20
2019-02-04T12:44:43.232Z,8.20
2019-02-04T12:47:14.631Z,8.00
2019-02-04T12:49:45.595Z,7.90
2019-02-04T12:52:16.195Z,7.90
2019-02-04T12:54:47.067Z,7.90
2019-02-04T12:57:17.712Z,7.80
2019-02-04T12:59:48.475Z,7.80
2019-02-04T13:02:19.130Z,7.80
2019-02-04T13:04:50.000Z,7.70
2019-02-04T13:07:20.707Z,7.60
2019-02-04T13:09:51.274Z,7.60
2019-02-04T13:12:21.967Z,7.50
2019-02-04T13:14:52.572Z,7.40
2019-02-04T13:17:23.254Z,7.30
2019-02-04T13:19:53.875Z,7.30
2019-02-04T13:22:24.579Z,7.30
2019-02-04T13:24:55.214Z,7.30
2019-02-04T13:27:29.088Z,7.30
2019-02-04T13:29:59.730Z,7.20
2019-02-04T13:32:30.723Z,7.10
2019-02-04T13:35:01.351Z,7.10
2019-02-04T13:37:31.984Z,7.00
2019-02-04T13:40:02.625Z,7.00
2019-02-04T13:42:34.134Z,7.10
2019-02-04T13:45:07.966Z,7.10
2019-02-04T13:47:38.979Z,7.00
2019-02-04T13:50:09.895Z,7.00
2019-02-04T13:52:40.602Z,7.00
2019-02-04T13:55:15.091Z,7.00
2019-02-04T13:57:45.838Z,6.90
2019-02-04T14:00:17.450Z,6.90
2019-02-04T14:02:58.873Z,6.80
2019-02-04T14:05:20.859Z,6.70
2019-02-04T14:07:55.515Z,6.60
2019-02-04T14:10:29.201Z,6.60
2019-02-04T14:12:59.958Z,6.50
2019-02-04T14:15:30.731Z,6.40
2019-02-04T14:18:01.794Z,6.40
2019-02-04T14:20:32.554Z,6.40
2019-02-04T14:23:03.324Z,6.40
2019-02-04T14:25:34.203Z,6.40
2019-02-04T14:28:05.715Z,6.30
2019-02-04T14:30:38.089Z,6.30
2019-02-04T14:33:08.967Z,6.20
2019-02-04T14:35:40.071Z,6.20
2019-02-04T14:38:11.134Z,6.20
2019-02-04T14:40:41.817Z,6.30
2019-02-04T14:43:43.051Z,6.30
2019-02-04T14:47:01.621Z,6.20
2019-02-04T14:49:43.757Z,6.10
2019-02-04T14:52:51.634Z,6.10
2019-02-04T14:55:37.835Z,6.00
2019-02-04T14:58:23.219Z,5.90
2019-02-04T15:01:30.959Z,5.80
2019-02-04T15:04:23.965Z,5.70
2019-02-04T15:07:13.045Z,5.70
2019-02-04T15:10:12.617Z,5.60
2019-02-04T15:13:02.744Z,5.60
2019-02-04T15:16:12.465Z,5.50
2019-02-04T15:19:32.953Z,5.40
2019-02-04T15:22:42.067Z,5.30
2019-02-04T15:25:46.590Z,5.30
2019-02-04T15:28:50.081Z,5.20
2019-02-04T15:31:48.404Z,5.10
2019-02-04T15:34:39.305Z,5.10
2019-02-04T15:37:57.295Z,5.10
2019-02-04T15:40:47.132Z,5.10
2019-02-04T15:43:46.271Z,5.00
2019-02-04T15:46:41.254Z,5.00
2019-02-04T15:49:51.891Z,4.80
2019-02-04T15:52:22.542Z,4.80
2019-02-04T15:54:53.397Z,4.70
2019-02-04T15:57:24.440Z,4.70
2019-02-04T15:59:55.111Z,4.60
2019-02-04T16:02:25.867Z,4.50
2019-02-04T16:04:56.569Z,4.50
2019-02-04T16:07:27.164Z,4.50
2019-02-04T16:09:58.083Z,4.50
2019-02-04T16:12:28.706Z,4.50
2019-02-04T16:14:59.360Z,4.50
2019-02-04T16:17:29.938Z,4.50
2019-02-04T16:20:00.598Z,4.40
2019-02-04T16:22:31.227Z,4.40
2019-02-04T16:25:01.795Z,4.40
2019-02-04T16:27:32.627Z,4.40
2019-02-04T16:30:03.350Z,4.40
2019-02-04T16:32:34.277Z,4.40
2019-02-04T16:35:06.170Z,4.40
2019-02-04T16:37:37.095Z,4.30
2019-02-04T16:40:10.228Z,4.40
2019-02-04T16:42:41.520Z,4.40
2019-02-04T16:45:12.419Z,4.40
2019-02-04T16:47:43.342Z,4.40
2019-02-04T16:50:25.242Z,4.30
2019-02-04T16:52:56.218Z,4.30
2019-02-04T16:55:26.757Z,4.30
2019-02-04T16:57:57.803Z,4.30
2019-02-04T17:00:30.820Z,4.30
2019-02-04T17:03:00.642Z,4.30
2019-02-04T17:05:30.309Z,4.30
2019-02-04T17:08:00.980Z,4.30
2019-02-04T17:10:31.781Z,4.40
2019-02-04T17:13:03.132Z,4.40
2019-02-04T17:15:34.358Z,4.40
2019-02-04T17:18:04.183Z,4.40
2019-02-04T17:20:34.783Z,4.40
2019-02-04T17:23:05.579Z,4.40
2019-02-04T17:25:36.207Z,4.40
2019-02-04T17:28:07.978Z,4.40
2019-02-04T17:30:41.995Z,4.40
2019-02-04T17:33:12.912Z,4.40
2019-02-04T17:35:44.031Z,4.40
2019-02-04T17:38:14.932Z,4.40
2019-02-04T17:40:47.148Z,4.40
2019-02-04T17:43:18.166Z,4.40
2019-02-04T17:45:48.816Z,4.40
2019-02-04T17:48:22.602Z,4.40
2019-02-04T17:50:55.465Z,4.40
2019-02-04T17:53:33.925Z,4.40
2019-02-04T17:56:01.898Z,4.40
2019-02-04T17:58:33.604Z,4.50
2019-02-04T18:01:09.439Z,4.50
2019-02-04T18:03:42.366Z,4.50
2019-02-04T18:06:40.500Z,4.50
2019-02-04T18:09:29.632Z,4.60
2019-02-04T18:16:00.602Z,4.60
2019-02-04T18:16:09.728Z,4.60
2019-02-04T18:18:37.403Z,4.60
2019-02-04T18:24:06.333Z,4.60
2019-02-04T18:27:24.162Z,4.50
2019-02-04T18:30:05.621Z,4.50
2019-02-04T18:32:48.939Z,4.50
2019-02-04T18:35:24.313Z,4.50
2019-02-04T18:38:40.531Z,4.50
2019-02-04T19:06:54.212Z,4.60
2019-02-04T19:07:05.313Z,4.60
2019-02-04T19:10:10.075Z,4.60
2019-02-04T19:14:33.761Z,4.60
2019-02-04T19:16:30.426Z,4.60
2019-02-04T19:19:51.122Z,4.60
2019-02-04T19:22:48.874Z,4.70
2019-02-04T19:26:16.335Z,4.70
2019-02-04T19:35:42.800Z,4.70
2019-02-04T19:38:59.313Z,4.80
2019-02-04T19:44:47.033Z,4.70
2019-02-04T19:47:19.090Z,4.70
2019-02-04T19:49:57.781Z,4.70
2019-02-04T19:52:34.296Z,4.80
2019-02-04T19:55:30.810Z,4.80
2019-02-04T19:58:07.483Z,4.80
2019-02-04T20:00:45.484Z,4.80
2019-02-04T20:04:13.085Z,4.80
2019-02-04T20:06:50.784Z,4.70
2019-02-04T20:09:33.747Z,4.70
2019-02-04T20:12:14.410Z,4.70
2019-02-04T20:15:17.026Z,4.80
2019-02-04T20:18:47.459Z,4.80
2019-02-04T20:25:05.730Z,4.80
2019-02-04T20:27:41.724Z,4.80
2019-02-04T20:30:16.339Z,4.80
2019-02-04T20:32:55.817Z,4.80
2019-02-04T20:35:42.704Z,4.80
2019-02-04T20:38:13.291Z,4.80
2019-02-04T20:40:47.546Z,4.70
2019-02-04T20:43:21.552Z,4.70
2019-02-04T20:50:04.102Z,4.70
2019-02-04T21:07:03.665Z,4.80
2019-02-04T21:18:45.497Z,4.90
2019-02-04T21:25:26.008Z,5.00
2019-02-04T21:31:35.948Z,5.10
2019-02-04T21:49:02.873Z,5.00
2019-02-04T21:52:55.069Z,5.00
2019-02-04T21:59:54.348Z,5.00
2019-02-04T22:03:11.495Z,5.00
2019-02-04T22:07:40.443Z,5.00
2019-02-04T22:23:10.452Z,4.90
2019-02-04T22:26:50.615Z,5.00
2019-02-04T22:46:26.484Z,5.00
2019-02-04T22:54:44.117Z,5.00
2019-02-04T23:02:07.081Z,4.90
2019-02-04T23:04:39.205Z,4.90
2019-02-04T23:07:14.655Z,4.90
2019-02-04T23:09:48.152Z,4.90
2019-02-04T23:12:21.458Z,4.90
2019-02-04T23:14:57.036Z,4.90
2019-02-04T23:17:30.056Z,4.90
2019-02-04T23:20:03.232Z,4.90
2019-02-04T23:22:34.303Z,4.90
2019-02-04T23:25:05.662Z,4.80
2019-02-04T23:27:36.634Z,4.80
2019-02-04T23:30:07.729Z,4.80
2019-02-04T23:32:38.170Z,4.80
2019-02-04T23:35:09.983Z,4.80
2019-02-04T23:37:41.550Z,4.80
2019-02-04T23:40:12.518Z,4.70
2019-02-04T23:42:43.226Z,4.70
2019-02-04T23:45:14.657Z,4.70
2019-02-04T23:47:46.789Z,4.70
2019-02-04T23:50:18.274Z,4.70
2019-02-04T23:52:49.074Z,4.70
2019-02-04T23:55:20.209Z,4.70
2019-02-04T23:57:50.789Z,4.60
